KPHX/PHX METAR and TAF weather

Enter ICAO airport designator
Station Type Date Time Source
KPHX METAR 2022/10/01 07:51 UTC NOAA

KPHX 010751Z 10007KT 10SM CLR 27/14 A2978 RMK AO2 SLP064 T02670139 $


Station Type Date Time Source
KPHX Decoded METAR 2022/10/01 07:51 UTC NOAA

Phoenix, Phoenix Sky Harbor International Airport, AZ, United States (KPHX) 33-26-03N 112-03-04W 336M
Oct 01, 2022 - 03:51 AM EDT / 2022.10.01 0751 UTC
Wind: from the E (100 degrees) at 8 MPH (7 KT):0
Visibility: 10 mile(s):0
Sky conditions: clear
Temperature: 80.1 F (26.7 C)
Dew Point: 57.0 F (13.9 C)
Relative Humidity: 45%
Pressure (altimeter): 29.78 in. Hg (1008 hPa)
ob: KPHX 010751Z 10007KT 10SM CLR 27/14 A2978 RMK AO2 SLP064 T02670139
cycle: 8

Station Type Date Time Source
KPHX TAF 2022/10/01 06:24 UTC NOAA

TAF KPHX 010521Z 0106/0212 14008KT P6SM FEW140
FM010900 10005KT P6SM SCT120
FM012100 25007KT P6SM FEW120 SCT250
FM020500 13005KT P6SM FEW120 FEW250

Example: see airport list